AirNav   Air Wisconsin Up To $57,000 Bonus
 
 496 users online  

1A3 Martin Campbell Field Airport
Copperhill, Tennessee, USA

GOING TO COPPERHILL?


FAA INFORMATION EFFECTIVE 22 APRIL 2021

Location

FAA Identifier: 1A3
Lat/Long: 35-00-56.9000N 084-20-48.6000W
35-00.948333N 084-20.810000W
35.0158056,-84.3468333
(estimated)
Elevation: 1788.9 ft. / 545.3 m (surveyed)
Variation: 05W (2010)
From city: 3 miles NE of COPPERHILL, TN
Time zone: UTC -4 (UTC -5 during Standard Time)
Zip code: 37317

Airport Operations

Airport use: Open to the public
Activation date: 12/1946
Control tower: no
ARTCC: ATLANTA CENTER
FSS: NASHVILLE FLIGHT SERVICE STATION
NOTAMs facility: BNA (NOTAM-D service available)
Attendance: IRREG
Wind indicator: yes
Segmented circle: yes
Beacon: white-green (lighted land airport)
Operates sunset to sunrise.

Airport Communications

CTAF: 122.9
WX AWOS-3PT at DZJ (20 nm SE): 119.325 (706-745-9271)
  • APCH/DEP SVC PRVDD BY ATLANTA ARTCC ON FREQS 133.1/342.425 (MOUNT OGLETHORPE RCAG).

Nearby radio navigation aids

VOR radial/distance  VOR name  Freq  Var
HRSr282/21.6HARRIS VORTAC109.8000E
GQOr084/39.8CHOO CHOO VORTAC115.8001E

 
NDB name  Hdg/Dist  Freq  Var  ID
MC MINN COUNTY158/25.024203WMMI -- -- ..

Airport Services

Fuel available: 100LL
FUEL 24 HR CREDIT CARD SVC AVBL.
Parking: hangars and tiedowns
Bottled oxygen: NONE
Bulk oxygen: NONE

Runway Information

Runway 2/20

Dimensions: 3500 x 75 ft. / 1067 x 23 m
Surface: asphalt, in good condition
Weight bearing capacity: 
Single wheel: 30.0
Double wheel: 45.0
RUNWAY 2  RUNWAY 20
Latitude: 35-00.669105N35-01.228858N
Longitude: 084-20.894662W084-20.725090W
Elevation: 1771.8 ft.1788.7 ft.
Traffic pattern: leftright
Runway heading: 019 magnetic, 014 true199 magnetic, 194 true
Markings: nonprecision, in good conditionnonprecision, in good condition
Visual slope indicator: 2-light PAPI on left (3.00 degrees glide path)2-light PAPI on left (4.00 degrees glide path)
Runway end identifier lights: yesyes
Touchdown point: yes, no lightsyes, no lights
Obstructions: 26 ft. tree, 356 ft. from runway, 121 ft. right of centerline, 6:1 slope to clear
RWY 02 APCH RATIO 17:1 TO DSPLCD THD
24 ft. tree, 230 ft. from runway, 91 ft. right of centerline, 1:1 slope to clear
RWY 20 APCH RATIO 19:1 TO DSPLCH THLD

Airport Ownership and Management from official FAA records

Ownership: Publicly-owned
Owner: POLK COUNTY
COUNTY COURTHOUSE
BENTON, TN 37307
Phone 423-338-4527
Manager: ALAN FROSCH
971 AIRPORT ROAD
COPPERHILL, TN 37317
Phone 423-496-9465

Airport Operational Statistics

Aircraft based on the field: 17
Single engine airplanes: 14
Multi engine airplanes: 2
Gliders airplanes: 1
    
Aircraft operations: avg 71/week *
59% transient general aviation
41% local general aviation
* for 12-month period ending 31 December 2018

Additional Remarks

:WILDLIFE INCLUDING DEER AND BIRDS INV OF RWY.
FOR CD CTC ATLANTA ARTCC AT 770-210-7692.

Instrument Procedures

NOTE: All procedures below are presented as PDF files. If you need a reader for these files, you should download the free Adobe Reader.

NOT FOR NAVIGATION. Please procure official charts for flight.
FAA instrument procedures published for use from 22 April 2021 at 0901Z to 20 May 2021 at 0900z.

 
IAPs - Instrument Approach Procedures
RNAV (GPS) RWY 02   download (242KB)
RNAV (GPS) RWY 20   download (233KB)
NOTE: Special Take-Off Minimums/Departure Procedures apply   download (126KB)

Other nearby airports with instrument procedures:

KDZJ - Blairsville Airport (20 nm SE)
49A - Gilmer County Airport (25 nm S)
KRZR - Cleveland Regional Jetport (25 nm NW)
KMMI - McMinn County Airport (25 nm NW)
KRHP - Western Carolina Regional Airport (26 nm NE)
 
Loc | Ops | Rwys | IFR | FBO | Links
Com | Nav | Svcs | Stats | Notes
Area around 1A3 (Martin Campbell Field Airport)
 
Road maps at: MapQuest Bing Google
 
Aerial photo
WARNING: Photo may not be current or correct
Aerial photo of 1A3 (Martin Campbell Field Airport)
Photo by Alan Frosch
Taken in the Spring of 2016
looking north.

Do you have a better or more recent aerial photo of Martin Campbell Field Airport that you would like to share? If so, please send us your photo.

 
Sectional chart

 
Airport distance calculator
Flying to Martin Campbell Field Airport? Find the distance to fly.

From to 1A3

Sunrise and sunset
Times for 18-May-2021
 Local
(UTC-4)
 Zulu
(UTC)
Morning civil twilight06:0410:04
Sunrise06:3310:33
Sunset20:3500:35
Evening civil twilight21:0301:03

Current date and time
Zulu (UTC)  18-May-2021 06:01:57
Local (UTC-4)  18-May-2021 02:01:57
 
METAR
KDZJ 
20nm SE 
180555Z AUTO 00000KT 10SM CLR 13/12 A3025 RMK AO2 T01330117 10199 20129
K49A 
25nm S 
180555Z AUTO 16003KT 10SM CLR 19/12 A3025 RMK AO2 6//// T01910117 10212 20190 402500105 PNO
KRZR 
25nm NW 
180555Z AUTO 00000KT 10SM CLR 15/15 A3017 RMK A01
KMMI 
25nm NW 
180555Z AUTO 05003KT 10SM BKN046 OVC055 16/14 A3021 RMK A01
KRHP 
26nm NE 
180535Z AUTO 00000KT 10SM CLR 13/12 A3025 RMK AO2 T01250124
KMNV 
32nm N 
180555Z AUTO 00000KT 10SM BKN049 OVC055 15/14 A3020 RMK A01
KJZP 
34nm S 
180555Z AUTO 19007KT 10SM CLR 19/12 A3025 RMK AO2 T01850124 10208 20185 402380126
TAF
KCHA 
42nm W 
180520Z 1806/1906 13003KT P6SM OVC200 FM181800 15010KT P6SM OVC100 FM190000 12003KT P6SM SCT150
NOTAMs
Click for the latest NOTAMs
NOTAMs are issued by the DoD/FAA and will open in a separate window not controlled by AirNav.

 

 
 

FBO, Fuel Providers, and Aircraft Ground Support

  
 Business Name 
 
 Contact 
 
 Services / Description 
 
Fuel Prices
 
Comments
  
Whitewater Aviation Corporation 423-496-9465
423-218-7681
[web site]
[email]
Airport management, Aviation fuel, Aircraft parking (ramp or tiedown), Hangars, Hangar leasing / sales, Aircraft maintenance, Rental cars on site, ...

More info about Whitewater Aviation Corporation
Titan
100LL
SS $4.20 
 Updated 13-May-2021
 
   14 read write
SS=Self service
Update Fuel Prices
 

Would you like to see your business listed on this page?

 If your business provides an interesting product or service to pilots, flight crews, aircraft, or users of the Martin Campbell Field Airport, you should consider listing it here.  To start the listing process, click on the button below
 
Add a business
 

Other Pages about Martin Campbell Field Airport

Update a link
 
Copyright © AirNav, LLC. All rights reserved. Privacy Policy  Contact